Sanem, Luxembourg
Current Conditions -  °F | °C
As of 7:50 AM on Thursday 27 Nov 2014 (Local Time) from ELLX Reporting Station
Haze Haze  
Wind Chill: 36°   Ceiling: 200
Heat Index: 41°   Visibility: 0.87mi
Dew Point: 41°   Wind: 7mph
Humidity: 100%   Direction: 60°ENE
Pressure: 29.77"   Gusts: NA
Location:  49.55°N, 5.93°E
Report Text: ELLX 270650Z 06006KT 1400 R24/P1500N BR BKN002 05/05 Q1008 NOSIG
Loading
Personal Weather Stations






























Interactive Weather Map New forecast layout! Learn more

10-Day Weather Forecast

Advertisements
Track Severe Weather on mobile